sensor_id;sensor_type;location;lat;lon;timestamp;P1;durP1;ratioP1;P2;durP2;ratioP2
34739;SDS011;20967;48.442;9.994;2022-09-09T00:00:56;8.10;;;1.98;;
34739;SDS011;20967;48.442;9.994;2022-09-09T00:10:57;7.65;;;2.35;;
34739;SDS011;20967;48.442;9.994;2022-09-09T00:13:28;4.87;;;1.27;;
34739;SDS011;20967;48.442;9.994;2022-09-09T00:23:48;5.47;;;1.82;;
34739;SDS011;20967;48.442;9.994;2022-09-09T00:26:19;8.45;;;1.30;;
34739;SDS011;20967;48.442;9.994;2022-09-09T00:28:46;4.28;;;1.52;;
34739;SDS011;20967;48.442;9.994;2022-09-09T00:31:17;8.20;;;1.15;;
34739;SDS011;20967;48.442;9.994;2022-09-09T00:33:46;3.67;;;1.32;;
34739;SDS011;20967;48.442;9.994;2022-09-09T00:36:14;7.20;;;1.30;;
34739;SDS011;20967;48.442;9.994;2022-09-09T00:38:45;4.85;;;1.10;;
34739;SDS011;20967;48.442;9.994;2022-09-09T00:44:03;13.65;;;1.50;;
34739;SDS011;20967;48.442;9.994;2022-09-09T00:49:05;5.47;;;1.50;;
34739;SDS011;20967;48.442;9.994;2022-09-09T00:51:37;5.97;;;1.42;;
34739;SDS011;20967;48.442;9.994;2022-09-09T00:54:07;5.12;;;1.42;;
34739;SDS011;20967;48.442;9.994;2022-09-09T00:56:34;3.70;;;1.52;;
34739;SDS011;20967;48.442;9.994;2022-09-09T00:59:02;4.83;;;1.37;;
34739;SDS011;20967;48.442;9.994;2022-09-09T01:01:29;10.13;;;1.87;;
34739;SDS011;20967;48.442;9.994;2022-09-09T01:03:56;2.83;;;1.42;;
34739;SDS011;20967;48.442;9.994;2022-09-09T01:06:32;2.87;;;1.25;;
34739;SDS011;20967;48.442;9.994;2022-09-09T01:14:05;13.15;;;2.27;;
34739;SDS011;20967;48.442;9.994;2022-09-09T01:16:30;12.90;;;2.58;;
34739;SDS011;20967;48.442;9.994;2022-09-09T01:18:58;12.15;;;2.42;;
34739;SDS011;20967;48.442;9.994;2022-09-09T01:29:19;5.12;;;2.37;;
34739;SDS011;20967;48.442;9.994;2022-09-09T01:31:55;5.35;;;1.70;;
34739;SDS011;20967;48.442;9.994;2022-09-09T01:37:25;3.70;;;1.98;;
34739;SDS011;20967;48.442;9.994;2022-09-09T01:41:56;9.25;;;1.62;;
34739;SDS011;20967;48.442;9.994;2022-09-09T01:44:24;8.68;;;1.60;;
34739;SDS011;20967;48.442;9.994;2022-09-09T01:46:53;8.05;;;2.20;;
34739;SDS011;20967;48.442;9.994;2022-09-09T01:49:20;8.28;;;1.50;;
34739;SDS011;20967;48.442;9.994;2022-09-09T01:51:54;5.03;;;1.65;;
34739;SDS011;20967;48.442;9.994;2022-09-09T01:54:18;9.28;;;1.85;;
34739;SDS011;20967;48.442;9.994;2022-09-09T01:59:22;3.20;;;1.40;;
34739;SDS011;20967;48.442;9.994;2022-09-09T02:01:53;5.42;;;1.32;;
34739;SDS011;20967;48.442;9.994;2022-09-09T02:04:23;6.55;;;1.75;;
34739;SDS011;20967;48.442;9.994;2022-09-09T02:06:47;8.53;;;1.77;;
34739;SDS011;20967;48.442;9.994;2022-09-09T02:09:16;3.55;;;1.85;;
34739;SDS011;20967;48.442;9.994;2022-09-09T02:11:45;3.80;;;1.87;;
34739;SDS011;20967;48.442;9.994;2022-09-09T02:14:16;9.08;;;1.77;;
34739;SDS011;20967;48.442;9.994;2022-09-09T02:16:56;5.12;;;1.70;;
34739;SDS011;20967;48.442;9.994;2022-09-09T02:21:50;4.80;;;1.92;;
34739;SDS011;20967;48.442;9.994;2022-09-09T02:24:20;10.72;;;2.25;;
34739;SDS011;20967;48.442;9.994;2022-09-09T02:26:49;8.70;;;2.12;;
34739;SDS011;20967;48.442;9.994;2022-09-09T02:29:19;4.67;;;2.08;;
34739;SDS011;20967;48.442;9.994;2022-09-09T02:31:48;6.97;;;2.60;;
34739;SDS011;20967;48.442;9.994;2022-09-09T02:34:17;14.45;;;3.33;;
34739;SDS011;20967;48.442;9.994;2022-09-09T02:36:46;15.58;;;2.90;;
34739;SDS011;20967;48.442;9.994;2022-09-09T02:39:14;14.70;;;3.10;;
34739;SDS011;20967;48.442;9.994;2022-09-09T02:41:42;6.78;;;2.45;;
34739;SDS011;20967;48.442;9.994;2022-09-09T02:44:13;8.70;;;2.30;;
34739;SDS011;20967;48.442;9.994;2022-09-09T02:49:17;8.40;;;1.80;;
34739;SDS011;20967;48.442;9.994;2022-09-09T02:54:27;4.60;;;1.20;;
34739;SDS011;20967;48.442;9.994;2022-09-09T02:57:03;4.62;;;1.52;;
34739;SDS011;20967;48.442;9.994;2022-09-09T02:59:27;6.83;;;0.90;;
34739;SDS011;20967;48.442;9.994;2022-09-09T03:01:55;6.42;;;1.22;;
34739;SDS011;20967;48.442;9.994;2022-09-09T03:04:23;14.33;;;1.47;;
34739;SDS011;20967;48.442;9.994;2022-09-09T03:06:52;4.22;;;1.15;;
34739;SDS011;20967;48.442;9.994;2022-09-09T03:09:19;3.98;;;1.00;;
34739;SDS011;20967;48.442;9.994;2022-09-09T03:11:47;3.60;;;1.20;;
34739;SDS011;20967;48.442;9.994;2022-09-09T03:14:15;4.65;;;0.98;;
34739;SDS011;20967;48.442;9.994;2022-09-09T03:16:43;6.15;;;1.22;;
34739;SDS011;20967;48.442;9.994;2022-09-09T03:19:16;4.17;;;1.15;;
34739;SDS011;20967;48.442;9.994;2022-09-09T03:21:45;2.87;;;1.10;;
34739;SDS011;20967;48.442;9.994;2022-09-09T03:24:14;4.10;;;1.15;;
34739;SDS011;20967;48.442;9.994;2022-09-09T03:26:41;3.77;;;1.37;;
34739;SDS011;20967;48.442;9.994;2022-09-09T03:29:11;3.27;;;1.72;;
34739;SDS011;20967;48.442;9.994;2022-09-09T03:31:41;7.37;;;1.40;;
34739;SDS011;20967;48.442;9.994;2022-09-09T03:34:09;7.15;;;1.55;;
34739;SDS011;20967;48.442;9.994;2022-09-09T03:36:37;4.05;;;1.05;;
34739;SDS011;20967;48.442;9.994;2022-09-09T03:39:04;2.52;;;0.80;;
34739;SDS011;20967;48.442;9.994;2022-09-09T03:41:32;3.17;;;0.98;;
34739;SDS011;20967;48.442;9.994;2022-09-09T03:44:00;6.55;;;1.20;;
34739;SDS011;20967;48.442;9.994;2022-09-09T03:46:28;4.58;;;1.20;;
34739;SDS011;20967;48.442;9.994;2022-09-09T03:48:56;5.53;;;1.57;;
34739;SDS011;20967;48.442;9.994;2022-09-09T03:51:25;2.72;;;1.37;;
34739;SDS011;20967;48.442;9.994;2022-09-09T03:53:55;6.25;;;1.52;;
34739;SDS011;20967;48.442;9.994;2022-09-09T03:56:24;4.20;;;1.20;;
34739;SDS011;20967;48.442;9.994;2022-09-09T03:58:52;6.75;;;1.37;;
34739;SDS011;20967;48.442;9.994;2022-09-09T04:01:20;2.52;;;1.37;;
34739;SDS011;20967;48.442;9.994;2022-09-09T04:03:47;7.30;;;1.40;;
34739;SDS011;20967;48.442;9.994;2022-09-09T04:06:15;5.65;;;1.67;;
34739;SDS011;20967;48.442;9.994;2022-09-09T04:08:43;4.97;;;1.47;;
34739;SDS011;20967;48.442;9.994;2022-09-09T04:11:11;11.05;;;1.50;;
34739;SDS011;20967;48.442;9.994;2022-09-09T04:13:39;8.00;;;1.70;;
34739;SDS011;20967;48.442;9.994;2022-09-09T04:16:07;4.72;;;1.80;;
34739;SDS011;20967;48.442;9.994;2022-09-09T04:18:34;6.95;;;2.80;;
34739;SDS011;20967;48.442;9.994;2022-09-09T04:21:02;6.62;;;1.77;;
34739;SDS011;20967;48.442;9.994;2022-09-09T04:23:31;7.72;;;1.95;;
34739;SDS011;20967;48.442;9.994;2022-09-09T04:26:00;3.75;;;1.70;;
34739;SDS011;20967;48.442;9.994;2022-09-09T04:28:29;12.70;;;2.15;;
34739;SDS011;20967;48.442;9.994;2022-09-09T04:31:03;7.87;;;1.98;;
34739;SDS011;20967;48.442;9.994;2022-09-09T04:33:26;7.65;;;1.65;;
34739;SDS011;20967;48.442;9.994;2022-09-09T04:35:54;9.93;;;1.98;;
34739;SDS011;20967;48.442;9.994;2022-09-09T04:38:21;6.05;;;1.20;;
34739;SDS011;20967;48.442;9.994;2022-09-09T04:40:50;8.50;;;2.52;;
34739;SDS011;20967;48.442;9.994;2022-09-09T04:43:20;3.90;;;1.15;;
34739;SDS011;20967;48.442;9.994;2022-09-09T04:45:48;6.30;;;1.40;;
34739;SDS011;20967;48.442;9.994;2022-09-09T04:48:15;4.95;;;1.00;;
34739;SDS011;20967;48.442;9.994;2022-09-09T04:50:43;3.98;;;1.55;;
34739;SDS011;20967;48.442;9.994;2022-09-09T04:53:12;11.03;;;2.22;;
34739;SDS011;20967;48.442;9.994;2022-09-09T04:55:44;7.72;;;1.60;;
34739;SDS011;20967;48.442;9.994;2022-09-09T04:58:12;3.35;;;1.57;;
34739;SDS011;20967;48.442;9.994;2022-09-09T05:00:41;6.83;;;1.85;;
34739;SDS011;20967;48.442;9.994;2022-09-09T05:03:09;6.42;;;1.82;;
34739;SDS011;20967;48.442;9.994;2022-09-09T05:05:39;10.40;;;1.90;;
34739;SDS011;20967;48.442;9.994;2022-09-09T05:08:07;6.30;;;2.02;;
34739;SDS011;20967;48.442;9.994;2022-09-09T05:10:38;8.50;;;2.10;;
34739;SDS011;20967;48.442;9.994;2022-09-09T05:13:07;8.35;;;1.70;;
34739;SDS011;20967;48.442;9.994;2022-09-09T05:15:35;3.33;;;1.55;;
34739;SDS011;20967;48.442;9.994;2022-09-09T05:18:02;2.98;;;1.80;;
34739;SDS011;20967;48.442;9.994;2022-09-09T05:20:30;11.10;;;1.70;;
34739;SDS011;20967;48.442;9.994;2022-09-09T05:22:58;6.35;;;1.92;;
34739;SDS011;20967;48.442;9.994;2022-09-09T05:25:26;2.42;;;1.25;;
34739;SDS011;20967;48.442;9.994;2022-09-09T05:27:53;4.85;;;1.45;;
34739;SDS011;20967;48.442;9.994;2022-09-09T05:30:21;6.47;;;1.95;;
34739;SDS011;20967;48.442;9.994;2022-09-09T05:32:50;3.10;;;1.00;;
34739;SDS011;20967;48.442;9.994;2022-09-09T05:35:18;5.22;;;1.57;;
34739;SDS011;20967;48.442;9.994;2022-09-09T05:37:47;4.85;;;1.60;;
34739;SDS011;20967;48.442;9.994;2022-09-09T05:40:14;4.97;;;1.80;;
34739;SDS011;20967;48.442;9.994;2022-09-09T05:42:45;6.20;;;1.87;;
34739;SDS011;20967;48.442;9.994;2022-09-09T05:45:16;6.55;;;1.30;;
34739;SDS011;20967;48.442;9.994;2022-09-09T05:47:43;7.75;;;1.32;;
34739;SDS011;20967;48.442;9.994;2022-09-09T05:50:11;6.40;;;1.00;;
34739;SDS011;20967;48.442;9.994;2022-09-09T05:52:41;8.78;;;1.65;;
34739;SDS011;20967;48.442;9.994;2022-09-09T05:55:10;4.62;;;1.15;;
34739;SDS011;20967;48.442;9.994;2022-09-09T05:57:38;7.58;;;1.50;;
34739;SDS011;20967;48.442;9.994;2022-09-09T06:00:06;5.37;;;1.70;;
34739;SDS011;20967;48.442;9.994;2022-09-09T06:02:34;5.65;;;1.32;;
34739;SDS011;20967;48.442;9.994;2022-09-09T06:05:03;9.35;;;1.82;;
34739;SDS011;20967;48.442;9.994;2022-09-09T06:07:31;6.92;;;1.65;;
34739;SDS011;20967;48.442;9.994;2022-09-09T06:09:58;7.20;;;1.20;;
34739;SDS011;20967;48.442;9.994;2022-09-09T06:12:26;4.30;;;1.75;;
34739;SDS011;20967;48.442;9.994;2022-09-09T06:14:54;4.50;;;1.57;;
34739;SDS011;20967;48.442;9.994;2022-09-09T06:17:23;5.03;;;1.90;;
34739;SDS011;20967;48.442;9.994;2022-09-09T06:19:50;7.92;;;1.67;;
34739;SDS011;20967;48.442;9.994;2022-09-09T06:22:18;7.78;;;1.60;;
34739;SDS011;20967;48.442;9.994;2022-09-09T06:24:46;6.45;;;2.17;;
34739;SDS011;20967;48.442;9.994;2022-09-09T06:27:13;4.50;;;1.37;;
34739;SDS011;20967;48.442;9.994;2022-09-09T06:29:41;5.17;;;1.62;;
34739;SDS011;20967;48.442;9.994;2022-09-09T06:32:08;6.83;;;2.77;;
34739;SDS011;20967;48.442;9.994;2022-09-09T06:34:36;8.00;;;1.45;;
34739;SDS011;20967;48.442;9.994;2022-09-09T06:37:03;2.90;;;1.22;;
34739;SDS011;20967;48.442;9.994;2022-09-09T06:39:33;4.45;;;1.12;;
34739;SDS011;20967;48.442;9.994;2022-09-09T06:42:00;9.60;;;1.60;;
34739;SDS011;20967;48.442;9.994;2022-09-09T06:44:28;5.25;;;1.42;;
34739;SDS011;20967;48.442;9.994;2022-09-09T06:46:57;4.12;;;1.32;;
34739;SDS011;20967;48.442;9.994;2022-09-09T06:49:24;7.17;;;1.82;;
34739;SDS011;20967;48.442;9.994;2022-09-09T06:51:52;7.85;;;1.47;;
34739;SDS011;20967;48.442;9.994;2022-09-09T06:54:20;7.42;;;1.72;;
34739;SDS011;20967;48.442;9.994;2022-09-09T06:56:49;3.45;;;1.47;;
34739;SDS011;20967;48.442;9.994;2022-09-09T06:59:17;5.03;;;1.30;;
34739;SDS011;20967;48.442;9.994;2022-09-09T07:01:44;3.98;;;1.40;;
34739;SDS011;20967;48.442;9.994;2022-09-09T07:04:13;8.60;;;1.72;;
34739;SDS011;20967;48.442;9.994;2022-09-09T07:06:41;4.25;;;1.55;;
34739;SDS011;20967;48.442;9.994;2022-09-09T07:09:13;4.67;;;1.52;;
34739;SDS011;20967;48.442;9.994;2022-09-09T07:11:42;4.22;;;1.15;;
34739;SDS011;20967;48.442;9.994;2022-09-09T07:14:11;2.75;;;1.40;;
34739;SDS011;20967;48.442;9.994;2022-09-09T07:16:42;7.58;;;1.42;;
34739;SDS011;20967;48.442;9.994;2022-09-09T07:19:10;4.08;;;1.00;;
34739;SDS011;20967;48.442;9.994;2022-09-09T07:21:39;3.98;;;1.22;;
34739;SDS011;20967;48.442;9.994;2022-09-09T07:24:06;3.83;;;1.02;;
34739;SDS011;20967;48.442;9.994;2022-09-09T07:26:36;3.65;;;1.05;;
34739;SDS011;20967;48.442;9.994;2022-09-09T07:29:04;3.33;;;0.85;;
34739;SDS011;20967;48.442;9.994;2022-09-09T07:31:33;5.15;;;1.10;;
34739;SDS011;20967;48.442;9.994;2022-09-09T07:34:01;12.23;;;4.08;;
34739;SDS011;20967;48.442;9.994;2022-09-09T07:36:30;26.60;;;8.93;;
34739;SDS011;20967;48.442;9.994;2022-09-09T07:39:00;9.50;;;3.55;;
34739;SDS011;20967;48.442;9.994;2022-09-09T07:41:29;7.17;;;1.87;;
34739;SDS011;20967;48.442;9.994;2022-09-09T07:43:57;5.78;;;1.25;;
34739;SDS011;20967;48.442;9.994;2022-09-09T07:46:25;7.55;;;1.40;;
34739;SDS011;20967;48.442;9.994;2022-09-09T07:48:55;3.62;;;1.35;;
34739;SDS011;20967;48.442;9.994;2022-09-09T07:51:30;2.35;;;1.20;;
34739;SDS011;20967;48.442;9.994;2022-09-09T07:56:25;6.87;;;1.62;;
34739;SDS011;20967;48.442;9.994;2022-09-09T07:58:53;4.75;;;1.40;;
34739;SDS011;20967;48.442;9.994;2022-09-09T08:01:23;4.92;;;1.47;;
34739;SDS011;20967;48.442;9.994;2022-09-09T08:03:55;5.55;;;1.32;;
34739;SDS011;20967;48.442;9.994;2022-09-09T08:06:25;4.03;;;1.30;;
34739;SDS011;20967;48.442;9.994;2022-09-09T08:08:53;4.72;;;1.75;;
34739;SDS011;20967;48.442;9.994;2022-09-09T08:11:22;7.45;;;1.30;;
34739;SDS011;20967;48.442;9.994;2022-09-09T08:13:51;4.75;;;1.40;;
34739;SDS011;20967;48.442;9.994;2022-09-09T08:16:26;3.55;;;1.47;;
34739;SDS011;20967;48.442;9.994;2022-09-09T08:21:25;3.17;;;1.30;;
34739;SDS011;20967;48.442;9.994;2022-09-09T08:23:55;6.95;;;1.45;;
34739;SDS011;20967;48.442;9.994;2022-09-09T08:26:24;4.50;;;2.15;;
34739;SDS011;20967;48.442;9.994;2022-09-09T08:28:54;8.00;;;2.40;;
34739;SDS011;20967;48.442;9.994;2022-09-09T08:31:26;2.42;;;1.82;;
34739;SDS011;20967;48.442;9.994;2022-09-09T08:33:56;3.42;;;1.80;;
34739;SDS011;20967;48.442;9.994;2022-09-09T08:36:27;5.17;;;2.25;;
34739;SDS011;20967;48.442;9.994;2022-09-09T08:38:56;4.30;;;2.50;;
34739;SDS011;20967;48.442;9.994;2022-09-09T08:52:03;4.40;;;2.10;;
34739;SDS011;20967;48.442;9.994;2022-09-09T08:54:33;5.12;;;2.10;;
34739;SDS011;20967;48.442;9.994;2022-09-09T08:57:03;8.93;;;2.22;;
34739;SDS011;20967;48.442;9.994;2022-09-09T08:59:32;3.58;;;1.92;;
34739;SDS011;20967;48.442;9.994;2022-09-09T09:02:02;6.70;;;1.85;;
34739;SDS011;20967;48.442;9.994;2022-09-09T09:04:41;4.85;;;1.90;;
34739;SDS011;20967;48.442;9.994;2022-09-09T09:12:15;5.73;;;1.27;;
34739;SDS011;20967;48.442;9.994;2022-09-09T09:14:39;4.60;;;1.52;;
34739;SDS011;20967;48.442;9.994;2022-09-09T09:17:10;4.12;;;1.20;;
34739;SDS011;20967;48.442;9.994;2022-09-09T09:19:37;5.75;;;1.17;;
34739;SDS011;20967;48.442;9.994;2022-09-09T09:27:40;5.12;;;1.62;;
34739;SDS011;20967;48.442;9.994;2022-09-09T09:30:15;8.68;;;1.62;;
34739;SDS011;20967;48.442;9.994;2022-09-09T09:32:42;2.90;;;1.07;;
34739;SDS011;20967;48.442;9.994;2022-09-09T09:35:11;2.85;;;1.10;;
34739;SDS011;20967;48.442;9.994;2022-09-09T09:37:40;5.20;;;1.40;;
34739;SDS011;20967;48.442;9.994;2022-09-09T09:47:45;8.00;;;1.30;;
34739;SDS011;20967;48.442;9.994;2022-09-09T09:50:16;5.60;;;0.98;;
34739;SDS011;20967;48.442;9.994;2022-09-09T09:52:53;6.37;;;1.02;;
34739;SDS011;20967;48.442;9.994;2022-09-09T09:55:13;6.75;;;1.50;;
34739;SDS011;20967;48.442;9.994;2022-09-09T09:57:41;2.05;;;1.00;;
34739;SDS011;20967;48.442;9.994;2022-09-09T10:02:41;4.78;;;1.27;;
34739;SDS011;20967;48.442;9.994;2022-09-09T10:05:20;4.00;;;1.12;;
34739;SDS011;20967;48.442;9.994;2022-09-09T10:10:21;4.55;;;1.00;;
34739;SDS011;20967;48.442;9.994;2022-09-09T10:12:53;4.30;;;1.10;;
34739;SDS011;20967;48.442;9.994;2022-09-09T10:18:04;4.15;;;0.98;;
34739;SDS011;20967;48.442;9.994;2022-09-09T10:23:02;2.45;;;0.80;;
34739;SDS011;20967;48.442;9.994;2022-09-09T10:25:31;4.95;;;0.70;;
34739;SDS011;20967;48.442;9.994;2022-09-09T10:30:36;3.17;;;0.90;;
34739;SDS011;20967;48.442;9.994;2022-09-09T10:33:07;3.47;;;0.70;;
34739;SDS011;20967;48.442;9.994;2022-09-09T10:35:34;4.00;;;0.68;;
34739;SDS011;20967;48.442;9.994;2022-09-09T10:43:12;1.57;;;0.57;;
34739;SDS011;20967;48.442;9.994;2022-09-09T10:48:10;2.83;;;0.68;;
34739;SDS011;20967;48.442;9.994;2022-09-09T10:50:44;7.58;;;0.88;;
34739;SDS011;20967;48.442;9.994;2022-09-09T10:55:44;2.52;;;0.90;;
34739;SDS011;20967;48.442;9.994;2022-09-09T10:58:18;1.92;;;0.70;;
34739;SDS011;20967;48.442;9.994;2022-09-09T11:00:43;2.95;;;0.80;;
34739;SDS011;20967;48.442;9.994;2022-09-09T11:03:22;5.65;;;0.60;;
34739;SDS011;20967;48.442;9.994;2022-09-09T11:05:45;3.55;;;0.80;;
34739;SDS011;20967;48.442;9.994;2022-09-09T11:08:20;6.28;;;0.90;;
34739;SDS011;20967;48.442;9.994;2022-09-09T11:13:19;4.30;;;0.85;;
34739;SDS011;20967;48.442;9.994;2022-09-09T11:15:59;4.40;;;0.82;;
34739;SDS011;20967;48.442;9.994;2022-09-09T11:20:55;4.25;;;0.90;;
34739;SDS011;20967;48.442;9.994;2022-09-09T11:23:25;3.33;;;0.70;;
34739;SDS011;20967;48.442;9.994;2022-09-09T11:25:53;4.17;;;0.80;;
34739;SDS011;20967;48.442;9.994;2022-09-09T11:42:23;3.90;;;0.90;;
34739;SDS011;20967;48.442;9.994;2022-09-09T11:44:35;3.60;;;0.68;;
34739;SDS011;20967;48.442;9.994;2022-09-09T11:47:03;2.85;;;0.60;;
34739;SDS011;20967;48.442;9.994;2022-09-09T11:54:48;2.62;;;0.50;;
34739;SDS011;20967;48.442;9.994;2022-09-09T11:59:49;3.98;;;0.60;;
34739;SDS011;20967;48.442;9.994;2022-09-09T12:02:22;6.33;;;0.90;;
34739;SDS011;20967;48.442;9.994;2022-09-09T12:07:24;3.75;;;0.62;;
34739;SDS011;20967;48.442;9.994;2022-09-09T12:12:23;3.22;;;0.80;;
34739;SDS011;20967;48.442;9.994;2022-09-09T12:20:00;2.77;;;0.50;;
34739;SDS011;20967;48.442;9.994;2022-09-09T12:22:38;3.20;;;0.80;;
34739;SDS011;20967;48.442;9.994;2022-09-09T12:27:57;0.82;;;0.50;;
34739;SDS011;20967;48.442;9.994;2022-09-09T12:30:15;1.90;;;0.82;;
34739;SDS011;20967;48.442;9.994;2022-09-09T12:35:44;1.52;;;0.40;;
34739;SDS011;20967;48.442;9.994;2022-09-09T12:40:21;1.35;;;0.47;;
34739;SDS011;20967;48.442;9.994;2022-09-09T12:45:19;4.30;;;0.75;;
34739;SDS011;20967;48.442;9.994;2022-09-09T12:47:48;3.10;;;0.57;;
34739;SDS011;20967;48.442;9.994;2022-09-09T12:50:19;4.28;;;0.60;;
34739;SDS011;20967;48.442;9.994;2022-09-09T12:52:47;3.17;;;0.75;;
34739;SDS011;20967;48.442;9.994;2022-09-09T12:55:20;2.47;;;0.53;;
34739;SDS011;20967;48.442;9.994;2022-09-09T12:57:48;7.00;;;0.68;;
34739;SDS011;20967;48.442;9.994;2022-09-09T13:00:21;2.83;;;0.70;;
34739;SDS011;20967;48.442;9.994;2022-09-09T13:02:56;3.35;;;0.40;;
34739;SDS011;20967;48.442;9.994;2022-09-09T13:08:04;3.40;;;0.60;;
34739;SDS011;20967;48.442;9.994;2022-09-09T13:10:32;3.22;;;0.45;;
34739;SDS011;20967;48.442;9.994;2022-09-09T13:12:59;7.25;;;0.85;;
34739;SDS011;20967;48.442;9.994;2022-09-09T13:15:28;1.62;;;0.47;;
34739;SDS011;20967;48.442;9.994;2022-09-09T13:17:57;2.12;;;0.50;;
34739;SDS011;20967;48.442;9.994;2022-09-09T13:20:27;4.55;;;0.70;;
34739;SDS011;20967;48.442;9.994;2022-09-09T13:22:57;5.28;;;0.60;;
34739;SDS011;20967;48.442;9.994;2022-09-09T13:28:21;2.57;;;0.53;;
34739;SDS011;20967;48.442;9.994;2022-09-09T13:35:47;2.70;;;1.00;;
34739;SDS011;20967;48.442;9.994;2022-09-09T13:38:17;3.50;;;0.60;;
34739;SDS011;20967;48.442;9.994;2022-09-09T13:41:01;2.62;;;0.60;;
34739;SDS011;20967;48.442;9.994;2022-09-09T13:43:31;3.10;;;0.55;;
34739;SDS011;20967;48.442;9.994;2022-09-09T13:46:22;4.80;;;0.72;;
34739;SDS011;20967;48.442;9.994;2022-09-09T13:48:30;3.45;;;0.85;;
34739;SDS011;20967;48.442;9.994;2022-09-09T13:51:02;4.97;;;0.98;;
34739;SDS011;20967;48.442;9.994;2022-09-09T13:55:59;3.08;;;0.60;;
34739;SDS011;20967;48.442;9.994;2022-09-09T13:58:27;2.60;;;0.62;;
34739;SDS011;20967;48.442;9.994;2022-09-09T14:00:55;3.00;;;0.53;;
34739;SDS011;20967;48.442;9.994;2022-09-09T14:03:23;2.15;;;0.50;;
34739;SDS011;20967;48.442;9.994;2022-09-09T14:05:52;1.20;;;0.40;;
34739;SDS011;20967;48.442;9.994;2022-09-09T14:08:25;8.20;;;0.65;;
34739;SDS011;20967;48.442;9.994;2022-09-09T14:10:50;1.87;;;0.50;;
34739;SDS011;20967;48.442;9.994;2022-09-09T14:13:18;4.75;;;1.00;;
34739;SDS011;20967;48.442;9.994;2022-09-09T14:15:48;4.80;;;0.70;;
34739;SDS011;20967;48.442;9.994;2022-09-09T14:18:16;4.47;;;0.70;;
34739;SDS011;20967;48.442;9.994;2022-09-09T14:20:44;3.30;;;0.70;;
34739;SDS011;20967;48.442;9.994;2022-09-09T14:23:11;3.83;;;0.70;;
34739;SDS011;20967;48.442;9.994;2022-09-09T14:25:40;1.75;;;0.57;;
34739;SDS011;20967;48.442;9.994;2022-09-09T14:28:09;4.40;;;0.62;;
34739;SDS011;20967;48.442;9.994;2022-09-09T14:30:42;1.72;;;0.47;;
34739;SDS011;20967;48.442;9.994;2022-09-09T14:33:06;4.30;;;0.53;;
34739;SDS011;20967;48.442;9.994;2022-09-09T14:35:34;1.20;;;0.50;;
34739;SDS011;20967;48.442;9.994;2022-09-09T14:38:03;0.20;;;0.20;;
34739;SDS011;20967;48.442;9.994;2022-09-09T14:40:30;3.15;;;0.88;;
34739;SDS011;20967;48.442;9.994;2022-09-09T14:42:58;2.58;;;0.90;;
34739;SDS011;20967;48.442;9.994;2022-09-09T14:45:26;5.97;;;0.85;;
34739;SDS011;20967;48.442;9.994;2022-09-09T14:47:53;4.80;;;0.55;;
34739;SDS011;20967;48.442;9.994;2022-09-09T14:50:21;1.12;;;0.40;;
34739;SDS011;20967;48.442;9.994;2022-09-09T14:52:49;3.25;;;0.75;;
34739;SDS011;20967;48.442;9.994;2022-09-09T14:55:17;3.67;;;0.65;;
34739;SDS011;20967;48.442;9.994;2022-09-09T14:57:44;2.08;;;0.50;;
34739;SDS011;20967;48.442;9.994;2022-09-09T15:00:12;0.20;;;0.20;;
34739;SDS011;20967;48.442;9.994;2022-09-09T15:02:40;7.87;;;0.60;;
34739;SDS011;20967;48.442;9.994;2022-09-09T15:05:07;6.75;;;0.60;;
34739;SDS011;20967;48.442;9.994;2022-09-09T15:07:35;3.52;;;1.00;;
34739;SDS011;20967;48.442;9.994;2022-09-09T15:10:03;3.65;;;0.72;;
34739;SDS011;20967;48.442;9.994;2022-09-09T15:12:31;4.08;;;0.60;;
34739;SDS011;20967;48.442;9.994;2022-09-09T15:14:59;2.40;;;0.60;;
34739;SDS011;20967;48.442;9.994;2022-09-09T15:17:27;4.03;;;0.50;;
34739;SDS011;20967;48.442;9.994;2022-09-09T15:19:54;3.75;;;0.70;;
34739;SDS011;20967;48.442;9.994;2022-09-09T15:22:22;2.02;;;0.20;;
34739;SDS011;20967;48.442;9.994;2022-09-09T15:24:50;2.33;;;0.60;;
34739;SDS011;20967;48.442;9.994;2022-09-09T15:27:18;3.83;;;0.55;;
34739;SDS011;20967;48.442;9.994;2022-09-09T15:29:45;1.62;;;0.42;;
34739;SDS011;20967;48.442;9.994;2022-09-09T15:32:13;2.20;;;0.50;;
34739;SDS011;20967;48.442;9.994;2022-09-09T15:34:41;0.95;;;0.50;;
34739;SDS011;20967;48.442;9.994;2022-09-09T15:37:11;1.12;;;0.30;;
34739;SDS011;20967;48.442;9.994;2022-09-09T15:39:41;3.58;;;0.42;;
34739;SDS011;20967;48.442;9.994;2022-09-09T15:42:09;6.53;;;0.50;;
34739;SDS011;20967;48.442;9.994;2022-09-09T15:44:41;2.33;;;0.37;;
34739;SDS011;20967;48.442;9.994;2022-09-09T15:47:14;4.72;;;0.40;;
34739;SDS011;20967;48.442;9.994;2022-09-09T15:49:39;2.92;;;0.30;;
34739;SDS011;20967;48.442;9.994;2022-09-09T15:52:06;1.82;;;0.40;;
34739;SDS011;20967;48.442;9.994;2022-09-09T15:54:34;1.35;;;0.23;;
34739;SDS011;20967;48.442;9.994;2022-09-09T15:57:05;2.40;;;0.40;;
34739;SDS011;20967;48.442;9.994;2022-09-09T15:59:33;2.35;;;0.70;;
34739;SDS011;20967;48.442;9.994;2022-09-09T16:02:00;4.22;;;0.50;;
34739;SDS011;20967;48.442;9.994;2022-09-09T16:04:28;4.50;;;0.37;;
34739;SDS011;20967;48.442;9.994;2022-09-09T16:07:00;2.02;;;0.53;;
34739;SDS011;20967;48.442;9.994;2022-09-09T16:09:28;3.33;;;0.60;;
34739;SDS011;20967;48.442;9.994;2022-09-09T16:11:57;0.45;;;0.30;;
34739;SDS011;20967;48.442;9.994;2022-09-09T16:14:24;4.20;;;0.60;;
34739;SDS011;20967;48.442;9.994;2022-09-09T16:16:52;3.42;;;0.80;;
34739;SDS011;20967;48.442;9.994;2022-09-09T16:19:20;5.30;;;0.60;;
34739;SDS011;20967;48.442;9.994;2022-09-09T16:21:49;2.62;;;0.53;;
34739;SDS011;20967;48.442;9.994;2022-09-09T16:24:17;3.22;;;0.50;;
34739;SDS011;20967;48.442;9.994;2022-09-09T16:26:46;3.65;;;0.50;;
34739;SDS011;20967;48.442;9.994;2022-09-09T16:29:14;2.00;;;0.35;;
34739;SDS011;20967;48.442;9.994;2022-09-09T16:31:42;2.45;;;0.50;;
34739;SDS011;20967;48.442;9.994;2022-09-09T16:34:10;17.75;;;6.08;;
34739;SDS011;20967;48.442;9.994;2022-09-09T16:36:38;44.90;;;14.58;;
34739;SDS011;20967;48.442;9.994;2022-09-09T16:39:08;62.50;;;27.25;;
34739;SDS011;20967;48.442;9.994;2022-09-09T16:41:37;68.20;;;28.80;;
34739;SDS011;20967;48.442;9.994;2022-09-09T16:44:06;51.80;;;16.40;;
34739;SDS011;20967;48.442;9.994;2022-09-09T16:46:34;29.10;;;11.05;;
34739;SDS011;20967;48.442;9.994;2022-09-09T16:49:03;24.95;;;8.78;;
34739;SDS011;20967;48.442;9.994;2022-09-09T16:51:35;30.32;;;11.00;;
34739;SDS011;20967;48.442;9.994;2022-09-09T16:54:01;31.05;;;11.70;;
34739;SDS011;20967;48.442;9.994;2022-09-09T16:56:31;30.00;;;11.10;;
34739;SDS011;20967;48.442;9.994;2022-09-09T16:59:01;25.88;;;10.60;;
34739;SDS011;20967;48.442;9.994;2022-09-09T17:01:30;12.05;;;3.60;;
34739;SDS011;20967;48.442;9.994;2022-09-09T17:03:59;6.58;;;3.02;;
34739;SDS011;20967;48.442;9.994;2022-09-09T17:06:28;4.28;;;2.37;;
34739;SDS011;20967;48.442;9.994;2022-09-09T17:08:56;2.87;;;0.72;;
34739;SDS011;20967;48.442;9.994;2022-09-09T17:11:24;7.33;;;2.00;;
34739;SDS011;20967;48.442;9.994;2022-09-09T17:13:52;5.37;;;1.25;;
34739;SDS011;20967;48.442;9.994;2022-09-09T17:16:22;3.60;;;1.30;;
34739;SDS011;20967;48.442;9.994;2022-09-09T17:18:50;3.50;;;1.40;;
34739;SDS011;20967;48.442;9.994;2022-09-09T17:21:19;3.35;;;0.60;;
34739;SDS011;20967;48.442;9.994;2022-09-09T17:23:47;3.27;;;0.60;;
34739;SDS011;20967;48.442;9.994;2022-09-09T17:26:17;7.03;;;0.90;;
34739;SDS011;20967;48.442;9.994;2022-09-09T17:28:45;4.60;;;1.90;;
34739;SDS011;20967;48.442;9.994;2022-09-09T17:31:13;21.62;;;7.78;;
34739;SDS011;20967;48.442;9.994;2022-09-09T17:33:43;13.80;;;6.62;;
34739;SDS011;20967;48.442;9.994;2022-09-09T17:36:12;17.73;;;8.63;;
34739;SDS011;20967;48.442;9.994;2022-09-09T17:38:39;4.42;;;0.72;;
34739;SDS011;20967;48.442;9.994;2022-09-09T17:41:12;0.70;;;0.50;;